createdAt,value
2023-05-12T05:00:13.788Z,21.57
2023-05-12T05:02:42.625Z,21.87
2023-05-12T05:05:11.910Z,19.17
2023-05-12T05:07:39.940Z,17.53
2023-05-12T05:10:09.241Z,16.83
2023-05-12T05:12:37.622Z,14.90
2023-05-12T05:15:06.598Z,18.97
2023-05-12T05:17:36.082Z,14.13
2023-05-12T05:20:09.766Z,14.33
2023-05-12T05:22:40.902Z,11.27
2023-05-12T05:25:10.342Z,21.60
2023-05-12T05:27:39.008Z,13.97
2023-05-12T05:30:09.097Z,14.57
2023-05-12T05:32:40.414Z,14.03
2023-05-12T05:35:09.154Z,11.40
2023-05-12T05:37:37.366Z,11.90
2023-05-12T05:40:06.439Z,15.97
2023-05-12T05:42:34.590Z,19.00
2023-05-12T05:45:02.691Z,15.90
2023-05-12T05:47:32.033Z,18.20
2023-05-12T05:50:01.856Z,20.23
2023-05-12T05:52:29.913Z,17.90
2023-05-12T05:54:57.964Z,25.63
2023-05-12T05:57:27.961Z,24.20
2023-05-12T05:59:56.432Z,19.70
2023-05-12T06:02:24.613Z,19.67
2023-05-12T06:04:52.964Z,24.90
2023-05-12T06:07:22.464Z,17.83
2023-05-12T06:09:50.557Z,23.93
2023-05-12T06:12:18.598Z,16.47
2023-05-12T06:14:46.746Z,19.87
2023-05-12T06:17:14.914Z,15.53
2023-05-12T06:19:44.080Z,19.50
2023-05-12T06:22:12.117Z,19.87
2023-05-12T06:24:41.606Z,22.60
2023-05-12T06:27:09.724Z,23.27
2023-05-12T06:29:37.789Z,18.00
2023-05-12T06:32:06.452Z,19.83
2023-05-12T06:34:34.522Z,20.30
2023-05-12T06:37:02.628Z,16.20
2023-05-12T06:39:30.769Z,20.77
2023-05-12T06:42:00.261Z,14.47
2023-05-12T06:44:28.414Z,18.83
2023-05-12T06:46:56.643Z,16.27
2023-05-12T06:49:24.713Z,19.53
2023-05-12T06:51:52.855Z,15.73
2023-05-12T06:54:20.963Z,13.20
2023-05-12T06:56:49.051Z,15.23
2023-05-12T06:59:20.173Z,10.93
2023-05-12T07:01:49.518Z,13.90
2023-05-12T07:04:17.580Z,13.37
2023-05-12T07:06:45.614Z,13.30
2023-05-12T07:09:14.173Z,13.77
2023-05-12T07:11:42.297Z,11.17
2023-05-12T07:14:10.725Z,12.30
2023-05-12T07:16:40.231Z,12.60
2023-05-12T07:19:09.038Z,12.87
2023-05-12T07:21:37.352Z,12.90
2023-05-12T07:24:06.135Z,14.60
2023-05-12T07:26:34.256Z,13.20
2023-05-12T07:29:03.898Z,11.43
2023-05-12T07:31:33.693Z,14.03
2023-05-12T07:34:03.412Z,13.40
2023-05-12T07:36:31.482Z,13.33
2023-05-12T07:38:59.626Z,10.17
2023-05-12T07:41:27.707Z,12.40
2023-05-12T07:43:55.793Z,11.00
2023-05-12T07:46:23.903Z,9.33
2023-05-12T07:48:51.922Z,7.33
2023-05-12T07:51:21.353Z,10.43
2023-05-12T07:53:49.442Z,8.20
2023-05-12T07:56:17.457Z,5.07
2023-05-12T07:58:47.305Z,6.30
2023-05-12T08:01:15.691Z,6.20
2023-05-12T08:03:44.027Z,5.90
2023-05-12T08:06:12.263Z,5.43
2023-05-12T08:08:41.644Z,4.27
2023-05-12T08:11:09.797Z,8.03
2023-05-12T08:13:38.063Z,4.23
2023-05-12T08:16:06.372Z,3.00
2023-05-12T08:18:34.478Z,4.53
2023-05-12T08:21:02.536Z,3.90
2023-05-12T08:23:30.591Z,3.93
2023-05-12T08:26:00.145Z,4.60
2023-05-12T08:28:28.261Z,5.87
2023-05-12T08:30:56.423Z,3.47
2023-05-12T08:33:24.664Z,4.47
2023-05-12T08:35:52.754Z,5.60
2023-05-12T08:38:21.353Z,2.03
2023-05-12T08:40:58.560Z,3.50
2023-05-12T08:43:38.495Z,2.93
2023-05-12T08:46:07.321Z,3.40
2023-05-12T08:48:36.114Z,2.60
2023-05-12T08:51:10.013Z,2.87
2023-05-12T08:53:38.865Z,4.90
2023-05-12T08:58:42.526Z,7.70
2023-05-12T09:01:14.767Z,6.20
2023-05-12T09:03:43.385Z,4.77
2023-05-12T09:06:12.724Z,6.60
2023-05-12T09:08:42.374Z,10.63
2023-05-12T09:11:12.720Z,9.00
2023-05-12T09:13:51.610Z,11.77
2023-05-12T09:16:23.628Z,11.37
2023-05-12T09:18:53.955Z,11.43
2023-05-12T09:21:22.619Z,13.23
2023-05-12T09:23:57.459Z,14.80
2023-05-12T09:26:26.774Z,15.77
2023-05-12T09:28:57.426Z,15.50
2023-05-12T09:31:27.994Z,17.70
2023-05-12T09:33:56.657Z,16.27
2023-05-12T09:36:26.279Z,19.23
2023-05-12T09:39:04.479Z,21.13
2023-05-12T09:41:32.993Z,20.70
2023-05-12T09:44:02.570Z,20.40
2023-05-12T09:46:30.941Z,24.37
2023-05-12T09:48:59.782Z,26.93
2023-05-12T09:51:29.247Z,23.80
2023-05-12T09:53:57.550Z,23.97
2023-05-12T09:56:29.174Z,25.50
2023-05-12T09:58:58.297Z,24.73
2023-05-12T10:01:28.878Z,28.53
2023-05-12T10:03:59.061Z,29.63
2023-05-12T10:06:29.095Z,29.77
2023-05-12T10:09:05.275Z,27.77
2023-05-12T10:11:34.129Z,32.10
2023-05-12T10:14:02.509Z,34.47
2023-05-12T10:16:32.932Z,34.07
2023-05-12T10:19:01.701Z,38.73
2023-05-12T10:21:30.196Z,35.10
2023-05-12T10:23:58.912Z,36.73
2023-05-12T10:26:27.507Z,40.47
2023-05-12T10:28:56.044Z,39.47
2023-05-12T10:31:25.798Z,39.73
2023-05-12T10:34:02.467Z,41.47
2023-05-12T10:36:30.937Z,46.23
2023-05-12T10:39:06.409Z,54.20
2023-05-12T10:41:36.251Z,46.67
2023-05-12T10:44:04.264Z,49.33
2023-05-12T10:46:32.601Z,52.70
2023-05-12T10:49:04.461Z,41.93
2023-05-12T10:51:34.490Z,43.40
2023-05-12T10:54:04.958Z,41.53
2023-05-12T10:56:44.486Z,41.70
2023-05-12T10:59:19.055Z,50.87
2023-05-12T11:02:17.142Z,41.47
2023-05-12T11:04:50.983Z,42.00
2023-05-12T11:07:24.468Z,44.30
2023-05-12T11:09:57.787Z,44.57
2023-05-12T11:12:28.893Z,42.60
2023-05-12T11:14:57.303Z,44.43
2023-05-12T11:17:25.536Z,45.53
2023-05-12T11:19:56.493Z,50.47
2023-05-12T11:22:25.437Z,45.73
2023-05-12T11:24:53.967Z,38.93
2023-05-12T11:27:23.803Z,39.97
2023-05-12T11:29:59.843Z,38.67
2023-05-12T11:32:28.399Z,42.23
2023-05-12T11:34:58.594Z,45.40
2023-05-12T11:37:26.840Z,48.50
2023-05-12T11:39:54.933Z,48.27
2023-05-12T11:42:25.693Z,48.47
2023-05-12T11:44:55.607Z,42.80
2023-05-12T11:47:23.746Z,47.07
2023-05-12T11:49:53.139Z,46.87
2023-05-12T11:52:24.353Z,42.70
2023-05-12T11:54:53.483Z,46.63
2023-05-12T11:57:28.637Z,43.50
2023-05-12T12:00:01.758Z,37.50
2023-05-12T12:02:30.518Z,42.43
2023-05-12T12:04:59.093Z,39.53
2023-05-12T12:07:32.719Z,39.20
2023-05-12T12:10:11.406Z,36.57
2023-05-12T12:12:39.521Z,36.80
2023-05-12T12:15:08.794Z,36.03
2023-05-12T12:17:37.090Z,34.53
2023-05-12T12:20:05.846Z,36.30
2023-05-12T12:22:35.384Z,37.47
2023-05-12T12:25:04.095Z,38.80
2023-05-12T12:27:32.361Z,38.73
2023-05-12T12:30:00.433Z,32.67
2023-05-12T12:32:29.156Z,30.70
2023-05-12T12:34:59.691Z,32.17
2023-05-12T12:37:27.797Z,37.83
2023-05-12T12:39:57.590Z,34.30
2023-05-12T12:42:26.096Z,33.90
2023-05-12T12:44:54.394Z,33.17
2023-05-12T12:47:23.426Z,30.50
2023-05-12T12:49:51.688Z,25.33
2023-05-12T12:52:19.763Z,24.20
2023-05-12T12:54:47.810Z,27.60
2023-05-12T12:57:17.319Z,22.33
2023-05-12T12:59:45.431Z,24.07
2023-05-12T13:02:13.584Z,23.17
2023-05-12T13:04:41.703Z,25.17
2023-05-12T13:07:09.852Z,21.53
2023-05-12T13:09:37.916Z,23.20
2023-05-12T13:12:07.005Z,20.30
2023-05-12T13:14:36.462Z,20.47
2023-05-12T13:17:04.887Z,19.30
2023-05-12T13:19:33.980Z,19.27
2023-05-12T13:22:03.432Z,17.00
2023-05-12T13:24:31.527Z,16.57
2023-05-12T13:26:59.551Z,17.40
2023-05-12T13:29:27.663Z,15.93
2023-05-12T13:31:57.195Z,14.73
2023-05-12T13:34:25.258Z,15.10
2023-05-12T13:36:53.367Z,14.30
2023-05-12T13:39:21.419Z,13.00
2023-05-12T13:41:49.590Z,14.50
2023-05-12T13:44:17.654Z,13.67
2023-05-12T13:46:45.749Z,13.90
2023-05-12T13:49:15.310Z,14.60
2023-05-12T13:51:43.390Z,15.73
2023-05-12T13:54:11.563Z,14.47
2023-05-12T13:56:39.643Z,13.43
2023-05-12T13:59:09.335Z,10.40
2023-05-12T14:01:37.769Z,9.00
2023-05-12T14:04:06.042Z,9.17
2023-05-12T14:06:35.588Z,9.67
2023-05-12T14:09:05.549Z,10.13
2023-05-12T14:11:33.768Z,9.70
2023-05-12T14:14:03.448Z,9.80
2023-05-12T14:16:31.645Z,11.00
2023-05-12T14:19:00.218Z,9.60
2023-05-12T14:21:28.611Z,10.73
2023-05-12T14:23:58.181Z,10.53
2023-05-12T14:26:26.584Z,9.93
2023-05-12T14:28:54.813Z,9.73
2023-05-12T14:31:22.940Z,10.23
2023-05-12T14:33:51.155Z,9.70
2023-05-12T14:36:19.291Z,9.70
2023-05-12T14:38:49.162Z,12.13
2023-05-12T14:41:18.841Z,10.37
2023-05-12T14:43:47.135Z,9.87
2023-05-12T14:46:15.512Z,11.77
2023-05-12T14:48:44.303Z,11.97
2023-05-12T14:51:12.454Z,7.83
2023-05-12T14:53:40.911Z,7.07
2023-05-12T14:56:09.361Z,7.23
2023-05-12T14:58:38.838Z,7.77
2023-05-12T15:01:09.371Z,7.90
2023-05-12T15:03:37.800Z,7.10
2023-05-12T15:06:07.803Z,7.40
2023-05-12T15:08:36.446Z,9.43
2023-05-12T15:11:04.718Z,13.23
2023-05-12T15:13:33.175Z,8.37
2023-05-12T15:16:04.521Z,9.37
2023-05-12T15:18:32.789Z,9.20
2023-05-12T15:21:01.092Z,8.60
2023-05-12T15:23:29.342Z,8.40
2023-05-12T15:25:59.422Z,8.50
2023-05-12T15:28:29.636Z,9.03
2023-05-12T15:30:57.850Z,8.83
2023-05-12T15:33:27.546Z,8.57
2023-05-12T15:35:55.740Z,8.03
2023-05-12T15:38:23.800Z,8.53
2023-05-12T15:40:51.818Z,9.87
2023-05-12T15:43:19.994Z,7.00
2023-05-12T15:45:48.012Z,7.00
2023-05-12T15:48:16.650Z,6.50
2023-05-12T15:50:46.274Z,7.30
2023-05-12T15:53:14.334Z,5.43
2023-05-12T15:55:42.405Z,4.67
2023-05-12T15:58:10.490Z,5.27
2023-05-12T16:00:38.963Z,5.53
2023-05-12T16:03:07.186Z,9.20
2023-05-12T16:05:38.015Z,5.97
2023-05-12T16:08:07.859Z,5.63
2023-05-12T16:10:36.000Z,5.60
2023-05-12T16:13:04.442Z,8.10
2023-05-12T16:15:32.614Z,6.47
2023-05-12T16:18:00.673Z,8.83
2023-05-12T16:20:30.420Z,4.07
2023-05-12T16:22:58.530Z,6.77
2023-05-12T16:25:27.951Z,5.70
2023-05-12T16:27:56.005Z,4.67
2023-05-12T16:30:24.222Z,4.57
2023-05-12T16:32:52.736Z,4.97
2023-05-12T16:35:21.321Z,4.73
2023-05-12T16:37:49.561Z,5.20
2023-05-12T16:40:19.143Z,6.97
2023-05-12T16:42:48.584Z,4.53
2023-05-12T16:45:16.868Z,7.50
2023-05-12T16:47:45.071Z,5.43
2023-05-12T16:50:13.607Z,5.90
2023-05-12T16:52:41.747Z,6.97
2023-05-12T16:55:10.605Z,5.10
2023-05-12T16:57:40.509Z,10.83
2023-05-12T17:00:13.046Z,6.27
2023-05-12T17:02:41.363Z,6.90
2023-05-12T17:05:09.862Z,7.60
2023-05-12T17:07:37.993Z,7.90
2023-05-12T17:10:06.746Z,9.37
2023-05-12T17:12:34.840Z,9.53
2023-05-12T17:15:07.667Z,8.47
2023-05-12T17:17:51.610Z,13.17
2023-05-12T17:20:19.924Z,10.93
2023-05-12T17:22:51.551Z,9.00
2023-05-12T17:25:20.364Z,8.83
2023-05-12T17:27:49.435Z,10.20
2023-05-12T17:30:18.713Z,7.43
2023-05-12T17:32:47.250Z,9.07
2023-05-12T17:35:16.883Z,12.07
2023-05-12T17:37:45.016Z,8.00
2023-05-12T17:40:16.736Z,10.03
2023-05-12T18:03:34.680Z,10.90
